Time;durP1;ratioP1;P1;durP2;ratioP2;P2;SDS_P1;SDS_P2;PMS_P1;PMS_P2;Temp;Humidity;BMP_temperature;BMP_pressure;BME280_temperature;BME280_humidity;BME280_pressure;Samples;Min_cycle;Max_cycle;Signal;HPM_P1;HPM_P2
2024/01/05 00:00:11;;;;;;;5.65;2.58;;;;;;;3.56;100.00;97399.72;6105889;19;20007;-71
2024/01/05 00:02:12;;;;;;;5.05;1.98;;;;;;;3.57;100.00;97411.44;6105731;19;20022;-72
2024/01/05 00:04:12;;;;;;;7.32;2.05;;;;;;;3.52;100.00;97404.31;6105327;19;19999;-72
2024/01/05 00:06:12;;;;;;;5.90;2.40;;;;;;;3.50;100.00;97411.28;6105910;19;20374;-72
2024/01/05 00:08:13;;;;;;;2.53;1.35;;;;;;;3.47;100.00;97406.50;6104391;19;19998;-72
2024/01/05 00:10:13;;;;;;;6.68;1.48;;;;;;;3.37;100.00;97400.47;6103543;19;20010;-72
2024/01/05 00:12:13;;;;;;;6.60;2.25;;;;;;;3.30;100.00;97397.56;6104867;19;20010;-72
2024/01/05 00:14:14;;;;;;;4.05;1.60;;;;;;;3.24;100.00;97395.47;6101095;19;20007;-72
2024/01/05 00:16:22;;;;;;;4.78;1.67;;;;;;;3.17;100.00;97393.38;6098884;19;20002;-72
2024/01/05 00:18:23;;;;;;;6.43;1.67;;;;;;;3.13;100.00;97399.88;6100349;19;20242;-72
2024/01/05 00:20:23;;;;;;;3.50;1.40;;;;;;;3.08;100.00;97390.03;6102677;19;20034;-72
2024/01/05 00:22:24;;;;;;;3.55;1.58;;;;;;;3.07;100.00;97383.78;6098807;19;20030;-72
2024/01/05 00:24:24;;;;;;;3.75;1.50;;;;;;;3.01;100.00;97377.00;6106728;19;20340;-72
2024/01/05 00:26:25;;;;;;;3.10;1.60;;;;;;;2.95;100.00;97383.88;6110684;19;20017;-72
2024/01/05 00:28:27;;;;;;;4.97;1.88;;;;;;;2.87;100.00;97367.66;6113001;19;20018;-72
2024/01/05 00:30:27;;;;;;;4.57;2.05;;;;;;;2.81;100.00;97373.41;6105928;19;20010;-72
2024/01/05 00:32:28;;;;;;;7.40;2.42;;;;;;;2.78;100.00;97367.84;6108129;19;20020;-72
2024/01/05 00:34:28;;;;;;;6.07;2.00;;;;;;;2.76;100.00;97368.22;6112877;19;20010;-72
2024/01/05 00:36:28;;;;;;;4.50;2.10;;;;;;;2.76;100.00;97361.97;6112934;19;20027;-72
2024/01/05 00:38:28;;;;;;;3.28;1.67;;;;;;;2.74;100.00;97361.53;6112630;19;20011;-72
2024/01/05 00:40:29;;;;;;;4.97;1.90;;;;;;;2.74;100.00;97361.53;6108535;19;20032;-72
2024/01/05 00:42:29;;;;;;;4.20;1.85;;;;;;;2.67;100.00;97353.94;6104920;19;20096;-72
2024/01/05 00:44:29;;;;;;;7.13;2.35;;;;;;;2.66;100.00;97352.38;6106772;19;20013;-72
2024/01/05 00:46:30;;;;;;;4.07;1.63;;;;;;;2.66;100.00;97352.38;6108055;19;20074;-72
2024/01/05 00:48:30;;;;;;;5.85;1.70;;;;;;;2.72;100.00;97348.19;6109201;19;20371;-72
2024/01/05 00:50:30;;;;;;;3.03;1.58;;;;;;;2.74;100.00;97351.41;6112076;19;20006;-72
2024/01/05 00:52:31;;;;;;;4.93;2.05;;;;;;;2.75;100.00;97344.00;6108838;19;20003;-72
2024/01/05 00:54:31;;;;;;;2.97;1.40;;;;;;;2.75;100.00;97344.78;6104752;19;20011;-72
2024/01/05 00:56:32;;;;;;;5.72;1.48;;;;;;;2.79;100.00;97347.59;6106222;19;20009;-72
2024/01/05 00:58:32;;;;;;;5.22;1.77;;;;;;;2.84;100.00;97335.59;6107130;19;20006;-72
2024/01/05 01:00:32;;;;;;;5.28;1.90;;;;;;;2.85;100.00;97337.97;6111825;19;20323;-72
2024/01/05 01:02:33;;;;;;;5.45;1.95;;;;;;;2.84;100.00;97336.41;6108380;19;20030;-72
2024/01/05 01:04:33;;;;;;;3.13;1.67;;;;;;;2.79;100.00;97342.13;6106411;19;20550;-72
2024/01/05 01:06:33;;;;;;;4.55;1.77;;;;;;;2.84;100.00;97336.41;6108585;19;20038;-72
2024/01/05 01:08:33;;;;;;;4.32;1.85;;;;;;;2.85;100.00;97335.25;6107997;19;20259;-72
2024/01/05 01:10:34;;;;;;;3.20;1.50;;;;;;;2.88;100.00;97328.28;6109835;19;20006;-72
2024/01/05 01:12:34;;;;;;;4.70;1.80;;;;;;;2.84;100.00;97324.69;6110154;19;20013;-72
2024/01/05 01:14:34;;;;;;;7.15;2.13;;;;;;;2.84;100.00;97330.94;6110329;19;20030;-72
2024/01/05 01:16:35;;;;;;;5.35;1.73;;;;;;;2.83;100.00;97321.16;6110526;19;20006;-72
2024/01/05 01:18:36;;;;;;;8.63;2.00;;;;;;;2.83;100.00;97325.81;6110990;19;20030;-72
2024/01/05 01:20:36;;;;;;;5.25;1.60;;;;;;;2.79;100.00;97312.88;6112998;19;20006;-72
2024/01/05 01:22:37;;;;;;;4.45;1.55;;;;;;;2.84;100.00;97324.69;6111418;19;20003;-72
2024/01/05 01:24:37;;;;;;;3.20;1.42;;;;;;;2.84;100.00;97322.75;6112184;19;20523;-72
2024/01/05 01:26:38;;;;;;;4.53;1.90;;;;;;;2.87;100.00;97311.09;6111547;19;20019;-72
2024/01/05 01:28:39;;;;;;;4.20;1.88;;;;;;;2.87;100.00;97319.28;6111560;19;20006;-72
2024/01/05 01:30:39;;;;;;;5.30;1.65;;;;;;;2.89;100.00;97313.47;6109744;19;20007;-72
2024/01/05 01:32:41;;;;;;;4.97;1.60;;;;;;;2.85;100.00;97318.84;6110687;19;20002;-72
2024/01/05 01:34:41;;;;;;;4.68;2.22;;;;;;;2.82;100.00;97319.56;6106730;19;20023;-72
2024/01/05 01:36:41;;;;;;;4.00;2.15;;;;;;;2.81;100.00;97323.44;6111169;19;20006;-72
2024/01/05 01:38:41;;;;;;;4.55;2.03;;;;;;;2.77;100.00;97320.63;6109680;19;20348;-72
2024/01/05 01:40:46;;;;;;;4.53;1.90;;;;;;;2.73;100.00;97308.84;6111809;19;20035;-72
2024/01/05 01:42:47;;;;;;;8.70;2.28;;;;;;;2.72;100.00;97298.25;6110498;19;20023;-72
2024/01/05 01:44:47;;;;;;;4.90;2.10;;;;;;;2.75;100.00;97297.56;6109884;19;20011;-72
2024/01/05 01:46:53;;;;;;;5.80;2.25;;;;;;;2.79;100.00;97287.50;6110598;19;20144;-72
2024/01/05 01:48:53;;;;;;;4.93;2.00;;;;;;;2.76;100.00;97283.53;6111328;19;20087;-72
2024/01/05 01:50:55;;;;;;;4.20;1.70;;;;;;;2.76;100.00;97278.06;6110040;19;20007;-72
2024/01/05 01:52:55;;;;;;;6.50;2.07;;;;;;;2.75;100.00;97273.75;6109643;19;20014;-72
2024/01/05 01:54:56;;;;;;;5.63;1.73;;;;;;;2.74;100.00;97266.72;6110184;19;20003;-72
2024/01/05 01:56:56;;;;;;;6.05;2.60;;;;;;;2.75;100.00;97254.66;6108908;19;20003;-72
2024/01/05 01:58:57;;;;;;;5.90;2.00;;;;;;;2.77;100.00;97257.00;6108523;19;20002;-72
2024/01/05 02:00:58;;;;;;;8.63;2.63;;;;;;;2.79;100.00;97260.97;6108664;19;20569;-72
2024/01/05 02:03:00;;;;;;;4.18;1.60;;;;;;;2.81;100.00;97252.41;6108689;19;20007;-72
2024/01/05 02:05:00;;;;;;;5.97;2.20;;;;;;;2.78;100.00;97259.38;6110874;19;20015;-72
2024/01/05 02:07:01;;;;;;;6.85;1.92;;;;;;;2.79;100.00;97260.97;6110498;19;20562;-72
2024/01/05 02:09:01;;;;;;;6.25;1.98;;;;;;;2.79;100.00;97235.59;6110307;19;20463;-72
2024/01/05 02:11:01;;;;;;;5.63;1.75;;;;;;;2.86;100.00;97237.69;6108374;19;20022;-72
2024/01/05 02:13:02;;;;;;;5.00;1.75;;;;;;;2.91;100.00;97237.41;6109138;19;20007;-72
2024/01/05 02:15:02;;;;;;;3.00;2.10;;;;;;;2.90;100.00;97233.09;6110581;19;20038;-72
2024/01/05 02:17:03;;;;;;;5.43;1.92;;;;;;;2.89;100.00;97234.22;6109815;19;20010;-72
2024/01/05 02:19:03;;;;;;;6.30;2.20;;;;;;;2.87;100.00;97239.28;6110517;19;20002;-72
2024/01/05 02:21:06;;;;;;;3.20;2.00;;;;;;;2.83;100.00;97230.22;6108076;19;20007;-72
2024/01/05 02:23:16;;;;;;;4.13;2.00;;;;;;;2.80;100.00;97226.25;6109038;19;20331;-72
2024/01/05 02:25:16;;;;;;;5.50;2.30;;;;;;;2.77;100.00;97214.09;6110141;19;20463;-72
2024/01/05 02:27:17;;;;;;;4.55;2.17;;;;;;;2.74;100.00;97214.81;6108750;19;20068;-72
2024/01/05 02:29:21;;;;;;;5.22;2.28;;;;;;;2.79;100.00;97211.00;6109249;19;20041;-72
2024/01/05 02:31:21;;;;;;;6.10;2.17;;;;;;;2.81;100.00;97206.78;6109967;19;20550;-72
2024/01/05 02:33:22;;;;;;;5.95;2.20;;;;;;;2.78;100.00;97203.97;6108650;19;20007;-72
2024/01/05 02:35:23;;;;;;;6.13;2.30;;;;;;;2.83;100.00;97198.22;6109124;19;20011;-72
2024/01/05 02:37:23;;;;;;;5.88;2.10;;;;;;;2.83;100.00;97189.25;6109949;19;20047;-72
2024/01/05 02:39:23;;;;;;;5.43;2.30;;;;;;;2.87;100.00;97203.75;6109414;19;20018;-72
2024/01/05 02:41:24;;;;;;;5.22;2.20;;;;;;;2.87;100.00;97198.28;6109411;19;20013;-72
2024/01/05 02:43:24;;;;;;;4.80;2.00;;;;;;;2.90;100.00;97192.13;6107324;19;20002;-72
2024/01/05 02:45:24;;;;;;;6.70;2.17;;;;;;;2.89;100.00;97190.53;6108589;19;20066;-72
2024/01/05 02:47:25;;;;;;;3.90;1.83;;;;;;;2.90;100.00;97192.13;6106256;19;20065;-72
2024/01/05 02:49:25;;;;;;;4.93;2.30;;;;;;;2.93;100.00;97199.59;6102300;19;20010;-72
2024/01/05 02:51:25;;;;;;;12.63;2.20;;;;;;;2.94;100.00;97204.69;6110238;19;20014;-72
2024/01/05 02:53:25;;;;;;;3.70;1.80;;;;;;;2.96;100.00;97202.38;6108885;19;20430;-72
2024/01/05 02:55:26;;;;;;;5.03;2.08;;;;;;;2.96;100.00;97194.19;6108850;19;20033;-72
2024/01/05 02:57:26;;;;;;;5.57;1.95;;;;;;;3.09;100.00;97203.06;6107341;19;20006;-72
2024/01/05 02:59:26;;;;;;;5.28;2.33;;;;;;;3.23;100.00;97199.81;6110059;19;20014;-72
2024/01/05 03:01:27;;;;;;;4.30;1.60;;;;;;;3.37;100.00;97200.06;6109396;19;20003;-72
2024/01/05 03:03:27;;;;;;;14.25;2.05;;;;;;;3.48;100.00;97201.09;6109558;19;21439;-72
2024/01/05 03:05:27;;;;;;;4.05;1.70;;;;;;;3.56;100.00;97202.81;6109017;19;20002;-72
2024/01/05 03:07:27;;;;;;;6.57;2.47;;;;;;;3.63;100.00;97197.44;6108431;19;20016;-72
2024/01/05 03:09:28;;;;;;;7.75;2.08;;;;;;;3.75;100.00;97201.97;6109926;19;20029;-72
2024/01/05 03:11:28;;;;;;;2.20;1.50;;;;;;;3.78;100.00;97194.97;6108757;19;20009;-72
2024/01/05 03:13:28;;;;;;;1.85;1.25;;;;;;;3.77;100.00;97191.44;6106539;19;20038;-72
2024/01/05 03:15:29;;;;;;;2.80;1.13;;;;;;;3.82;100.00;97191.13;6109216;19;20031;-71
2024/01/05 03:17:29;;;;;;;1.92;1.35;;;;;;;3.84;100.00;97188.03;6109233;19;20697;-72
2024/01/05 03:19:29;;;;;;;5.70;1.85;;;;;;;3.87;100.00;97185.34;6108569;19;20343;-72
2024/01/05 03:21:29;;;;;;;4.30;1.30;;;;;;;3.91;100.00;97182.69;6109674;19;20066;-72
2024/01/05 03:23:30;;;;;;;2.72;1.33;;;;;;;4.00;100.00;97177.75;6108745;19;20010;-72
2024/01/05 03:25:30;;;;;;;5.30;1.75;;;;;;;4.01;100.00;97182.06;6108311;19;20470;-72
2024/01/05 03:27:30;;;;;;;2.85;1.60;;;;;;;4.01;100.00;97181.28;6107355;19;20578;-72
2024/01/05 03:29:31;;;;;;;3.85;1.30;;;;;;;4.01;100.00;97162.91;6109399;19;20007;-72
2024/01/05 03:31:32;;;;;;;6.80;1.52;;;;;;;4.09;100.00;97172.03;6107817;19;20340;-72
2024/01/05 03:33:32;;;;;;;4.00;1.42;;;;;;;4.08;100.00;97154.81;6105680;19;20474;-72
2024/01/05 03:35:32;;;;;;;5.25;1.55;;;;;;;4.14;100.00;97156.09;6108665;19;20006;-72
2024/01/05 03:37:32;;;;;;;4.00;1.50;;;;;;;4.14;100.00;97156.09;6107663;19;20010;-72
2024/01/05 03:39:33;;;;;;;2.95;1.58;;;;;;;4.21;100.00;97150.69;6109100;19;20007;-72
2024/01/05 03:41:34;;;;;;;2.78;1.30;;;;;;;4.22;100.00;97151.50;6108202;19;20011;-72
2024/01/05 03:43:34;;;;;;;3.17;1.48;;;;;;;4.35;100.00;97141.13;6108272;19;20022;-72
2024/01/05 03:45:34;;;;;;;4.50;1.90;;;;;;;4.38;100.00;97138.41;6109260;19;20011;-72
2024/01/05 03:47:35;;;;;;;4.95;1.63;;;;;;;4.41;100.00;97143.19;6108157;19;20028;-72
2024/01/05 03:49:36;;;;;;;5.38;1.80;;;;;;;4.42;100.00;97139.28;6103454;19;20165;-72
2024/01/05 03:51:36;;;;;;;2.83;1.55;;;;;;;4.47;100.00;97143.66;6102046;19;20106;-72
2024/01/05 03:53:36;;;;;;;2.88;1.40;;;;;;;4.50;100.00;97137.44;6101045;19;20003;-72
2024/01/05 03:55:37;;;;;;;4.45;1.67;;;;;;;4.57;100.00;97142.22;6101376;19;20459;-72
2024/01/05 03:57:37;;;;;;;6.43;1.98;;;;;;;4.61;100.00;97140.31;6099668;19;20019;-72
2024/01/05 03:59:37;;;;;;;2.28;1.38;;;;;;;4.61;100.00;97135.63;6099839;19;20011;-72
2024/01/05 04:01:48;;;;;;;5.10;1.70;;;;;;;4.62;100.00;97136.41;6101777;19;20044;-72
2024/01/05 04:03:48;;;;;;;3.63;1.90;;;;;;;4.55;100.00;97133.56;6100369;19;20010;-72
2024/01/05 04:05:48;;;;;;;6.30;1.85;;;;;;;4.50;100.00;97131.94;6102085;19;20368;-72
2024/01/05 04:07:48;;;;;;;3.17;1.77;;;;;;;4.46;100.00;97131.88;6100851;19;20007;-72
2024/01/05 04:09:50;;;;;;;3.80;1.90;;;;;;;4.45;100.00;97129.53;6100166;19;20019;-72
2024/01/05 04:11:51;;;;;;;3.13;2.25;;;;;;;4.46;100.00;97123.66;6102062;19;20002;-72
2024/01/05 04:13:52;;;;;;;3.05;1.58;;;;;;;4.40;100.00;97119.69;6099626;19;20002;-72
2024/01/05 04:15:52;;;;;;;3.88;2.20;;;;;;;4.45;100.00;97113.88;6101038;19;20021;-72
2024/01/05 04:17:52;;;;;;;6.30;1.70;;;;;;;4.53;100.00;97108.50;6100474;19;20022;-72
2024/01/05 04:19:53;;;;;;;6.00;2.35;;;;;;;4.54;100.00;97101.84;6101336;19;20006;-72
2024/01/05 04:21:53;;;;;;;3.72;1.50;;;;;;;4.63;100.00;97097.66;6100323;19;20042;-72
2024/01/05 04:23:57;;;;;;;5.82;1.80;;;;;;;4.64;100.00;97087.53;6098885;19;20026;-72
2024/01/05 04:25:58;;;;;;;5.22;1.83;;;;;;;4.68;100.00;97085.59;6100670;19;20070;-72
2024/01/05 04:27:58;;;;;;;6.22;1.70;;;;;;;4.68;100.00;97088.34;6101206;19;20003;-72
2024/01/05 04:29:58;;;;;;;9.65;2.13;;;;;;;4.64;100.00;97082.84;6100265;19;20003;-72
2024/01/05 04:31:59;;;;;;;5.47;1.80;;;;;;;4.65;100.00;97078.16;6100025;19;20046;-72
2024/01/05 04:33:59;;;;;;;6.88;1.65;;;;;;;4.70;100.00;97077.78;6097216;19;20003;-72
2024/01/05 04:35:59;;;;;;;5.47;1.55;;;;;;;4.74;100.00;97071.22;6100308;19;20466;-72
2024/01/05 04:37:59;;;;;;;6.28;1.83;;;;;;;4.72;100.00;97068.06;6099809;19;20011;-72
2024/01/05 04:40:00;;;;;;;2.53;1.48;;;;;;;4.73;100.00;97068.84;6101258;19;20007;-72
2024/01/05 04:42:00;;;;;;;6.60;1.60;;;;;;;4.70;100.00;97072.31;6100212;19;20011;-72
2024/01/05 04:44:00;;;;;;;6.03;1.77;;;;;;;4.70;100.00;97070.38;6099052;19;20011;-72
2024/01/05 04:46:01;;;;;;;5.13;1.70;;;;;;;4.71;100.00;97057.44;6099108;19;20006;-72
2024/01/05 04:48:01;;;;;;;5.93;1.55;;;;;;;4.71;100.00;97060.97;6098250;19;20394;-72
2024/01/05 04:50:04;;;;;;;9.77;1.80;;;;;;;4.72;100.00;97059.06;6099993;19;20597;-72
2024/01/05 04:52:05;;;;;;;2.53;1.50;;;;;;;4.74;100.00;97067.69;6106790;19;20007;-72
2024/01/05 04:54:05;;;;;;;4.75;1.70;;;;;;;4.77;100.00;97064.19;6105779;19;20710;-72
2024/01/05 04:56:06;;;;;;;6.00;1.95;;;;;;;4.78;100.00;97063.03;6106915;19;20011;-72
2024/01/05 04:58:06;;;;;;;3.67;2.03;;;;;;;4.81;100.00;97064.25;6105328;19;20038;-72
2024/01/05 05:00:08;;;;;;;5.53;1.98;;;;;;;4.82;100.00;97065.81;6106480;19;20026;-72
2024/01/05 05:02:08;;;;;;;8.23;2.67;;;;;;;4.83;100.00;97053.69;6107606;19;20006;-72
2024/01/05 05:04:08;;;;;;;8.57;2.15;;;;;;;4.83;100.00;97061.91;6105332;19;19999;-72
2024/01/05 05:06:09;;;;;;;9.18;2.67;;;;;;;4.82;100.00;97047.41;6106389;19;20030;-71
2024/01/05 05:08:13;;;;;;;10.60;2.88;;;;;;;4.79;100.00;97048.94;6105711;19;20007;-72
2024/01/05 05:10:14;;;;;;;8.43;2.53;;;;;;;4.82;100.00;97052.13;6109321;19;20021;-72
2024/01/05 05:12:14;;;;;;;8.25;3.13;;;;;;;4.82;100.00;97058.38;6112368;19;20027;-72
2024/01/05 05:14:14;;;;;;;13.00;4.15;;;;;;;4.86;100.00;97061.94;6111645;19;20074;-72
2024/01/05 05:16:15;;;;;;;10.93;3.25;;;;;;;4.89;100.00;97057.69;6109992;19;20096;-72
2024/01/05 05:18:15;;;;;;;9.95;4.55;;;;;;;4.86;100.00;97066.63;6111866;19;20006;-72
2024/01/05 05:20:15;;;;;;;11.30;3.97;;;;;;;4.87;100.00;97071.72;6110863;19;20003;-72
2024/01/05 05:22:16;;;;;;;11.95;3.78;;;;;;;4.92;100.00;97056.91;6111919;19;20043;-72
2024/01/05 05:24:16;;;;;;;5.82;2.60;;;;;;;4.97;100.00;97062.84;6110679;19;20002;-72
2024/01/05 05:26:16;;;;;;;8.70;2.80;;;;;;;4.98;100.00;97064.44;6111604;19;20059;-72
2024/01/05 05:28:17;;;;;;;7.82;2.42;;;;;;;4.98;100.00;97061.69;6112105;19;20527;-72
2024/01/05 05:30:17;;;;;;;4.15;1.75;;;;;;;5.01;100.00;97060.94;6111349;19;20006;-71
2024/01/05 05:32:18;;;;;;;7.22;2.30;;;;;;;5.01;100.00;97057.41;6110419;19;20042;-72
2024/01/05 05:34:18;;;;;;;9.70;2.60;;;;;;;5.00;100.00;97058.56;6111469;19;20009;-72
2024/01/05 05:36:18;;;;;;;4.03;1.85;;;;;;;4.99;100.00;97057.78;6111227;19;20003;-72
2024/01/05 05:38:19;;;;;;;3.28;1.83;;;;;;;4.95;100.00;97054.19;6111441;19;20042;-72
2024/01/05 05:40:19;;;;;;;7.45;2.25;;;;;;;4.92;100.00;97057.69;6110579;19;20309;-71
2024/01/05 05:42:19;;;;;;;5.63;1.50;;;;;;;4.92;100.00;97054.97;6111161;19;20014;-72
2024/01/05 05:44:20;;;;;;;9.63;2.20;;;;;;;4.93;100.00;97056.53;6110560;19;20020;-72
2024/01/05 05:46:20;;;;;;;7.88;2.15;;;;;;;4.93;100.00;97059.28;6111206;19;21609;-72
2024/01/05 05:48:20;;;;;;;5.93;2.45;;;;;;;4.89;100.00;97061.19;6111345;19;20026;-72
2024/01/05 05:50:21;;;;;;;6.13;1.75;;;;;;;4.95;100.00;97053.41;6109840;19;20018;-72
2024/01/05 05:52:21;;;;;;;6.57;2.30;;;;;;;5.02;100.00;97057.03;6109957;19;20002;-72
2024/01/05 05:54:21;;;;;;;3.60;1.85;;;;;;;5.08;100.00;97049.25;6111999;19;20002;-72
2024/01/05 05:56:22;;;;;;;9.90;2.30;;;;;;;5.13;100.00;97061.81;6110404;19;19999;-72
2024/01/05 05:58:22;;;;;;;6.88;2.80;;;;;;;5.16;100.00;97055.59;6111476;19;20010;-72
2024/01/05 06:00:22;;;;;;;4.47;2.13;;;;;;;5.21;100.00;97055.25;6110331;19;20345;-71
2024/01/05 06:02:22;;;;;;;6.45;2.20;;;;;;;5.23;100.00;97052.94;6109631;19;20393;-72
2024/01/05 06:04:23;;;;;;;4.25;1.80;;;;;;;5.23;100.00;97056.47;6111444;19;20007;-72
2024/01/05 06:06:23;;;;;;;5.63;2.65;;;;;;;5.21;100.00;97056.06;6108118;19;20438;-72
2024/01/05 06:08:24;;;;;;;2.90;1.80;;;;;;;5.19;100.00;97063.06;6110975;19;20379;-72
2024/01/05 06:10:24;;;;;;;3.30;1.55;;;;;;;5.17;100.00;97068.94;6110405;19;19999;-72
2024/01/05 06:12:24;;;;;;;5.35;2.33;;;;;;;5.21;100.00;97064.28;6110001;19;20022;-71
2024/01/05 06:14:25;;;;;;;4.53;1.80;;;;;;;5.25;100.00;97078.00;6111298;19;20028;-71
2024/01/05 06:16:25;;;;;;;4.38;1.60;;;;;;;5.22;100.00;97071.34;6110499;19;20021;-71
2024/01/05 06:18:26;;;;;;;5.80;1.70;;;;;;;5.20;100.00;97065.41;6111204;19;20014;-71
2024/01/05 06:20:26;;;;;;;4.10;2.03;;;;;;;5.20;100.00;97070.13;6110179;19;20006;-71
2024/01/05 06:22:26;;;;;;;4.68;1.60;;;;;;;5.18;100.00;97062.28;6107159;19;20049;-72
2024/01/05 06:24:28;;;;;;;7.22;1.58;;;;;;;5.19;100.00;97060.31;6110711;19;20102;-72
2024/01/05 06:26:28;;;;;;;5.38;1.60;;;;;;;5.21;100.00;97078.00;6110445;19;20013;-72
2024/01/05 06:28:29;;;;;;;2.40;1.35;;;;;;;5.22;100.00;97082.31;6110375;19;20522;-72
2024/01/05 06:30:29;;;;;;;4.07;1.60;;;;;;;5.25;100.00;97078.81;6109569;19;20041;-72
2024/01/05 06:32:29;;;;;;;5.53;1.80;;;;;;;5.19;100.00;97077.56;6110070;19;20003;-72
2024/01/05 06:34:30;;;;;;;3.67;1.42;;;;;;;5.27;100.00;97084.69;6110332;19;20022;-72
2024/01/05 06:36:30;;;;;;;5.95;1.90;;;;;;;5.30;100.00;97086.69;6110933;19;20010;-72
2024/01/05 06:38:30;;;;;;;2.60;1.40;;;;;;;5.32;100.00;97089.84;6109322;19;20090;-72
2024/01/05 06:40:31;;;;;;;7.38;1.70;;;;;;;5.44;100.00;97083.28;6110583;19;20010;-72
2024/01/05 06:42:31;;;;;;;4.50;2.00;;;;;;;5.40;100.00;97087.16;6109357;19;20550;-72
2024/01/05 06:44:31;;;;;;;4.32;1.70;;;;;;;5.37;100.00;97091.44;6111175;19;20371;-72
2024/01/05 06:46:32;;;;;;;9.60;2.35;;;;;;;5.30;100.00;97078.47;6109496;19;20011;-71
2024/01/05 06:48:32;;;;;;;5.00;2.13;;;;;;;5.25;100.00;97086.25;6110289;19;20006;-71
2024/01/05 06:50:32;;;;;;;6.30;2.17;;;;;;;5.23;100.00;97083.88;6109274;19;20014;-72
2024/01/05 06:52:33;;;;;;;4.50;1.90;;;;;;;5.21;100.00;97079.91;6108493;19;20021;-71
2024/01/05 06:54:34;;;;;;;3.42;1.85;;;;;;;5.15;100.00;97070.47;6110841;19;20010;-72
2024/01/05 06:56:34;;;;;;;4.15;1.83;;;;;;;5.14;100.00;97064.22;6109785;19;20024;-71
2024/01/05 06:58:34;;;;;;;3.92;1.65;;;;;;;5.08;100.00;97063.75;6109615;19;20027;-72
2024/01/05 07:00:37;;;;;;;3.03;1.50;;;;;;;5.06;100.00;97065.31;6110193;19;20010;-72
2024/01/05 07:02:38;;;;;;;3.97;1.85;;;;;;;5.01;100.00;97065.63;6108702;19;20010;-72
2024/01/05 07:04:40;;;;;;;4.15;1.60;;;;;;;4.94;100.00;97063.59;6107503;19;20014;-72
2024/01/05 07:06:41;;;;;;;4.22;1.60;;;;;;;4.90;100.00;97057.28;6108820;19;20002;-72
2024/01/05 07:08:41;;;;;;;6.13;1.58;;;;;;;4.83;100.00;97053.69;6109593;19;20038;-72
2024/01/05 07:10:42;;;;;;;3.42;1.35;;;;;;;4.81;100.00;97058.75;6109540;19;20035;-72
2024/01/05 07:12:42;;;;;;;2.10;1.23;;;;;;;4.74;100.00;97053.97;6108928;19;20014;-72
2024/01/05 07:14:42;;;;;;;3.35;1.70;;;;;;;4.73;100.00;97055.16;6108796;19;20018;-72
2024/01/05 07:16:43;;;;;;;2.85;1.40;;;;;;;4.70;100.00;97050.41;6109675;19;20078;-72
2024/01/05 07:18:44;;;;;;;3.15;1.30;;;;;;;4.69;100.00;97038.66;6109210;19;20007;-72
2024/01/05 07:20:45;;;;;;;5.65;2.00;;;;;;;4.67;100.00;97040.19;6108970;19;20022;-72
2024/01/05 07:22:45;;;;;;;6.28;1.70;;;;;;;4.72;100.00;97032.44;6108739;19;20463;-72
2024/01/05 07:24:48;;;;;;;6.65;1.90;;;;;;;4.78;100.00;97024.66;6109704;19;20011;-72
2024/01/05 07:26:48;;;;;;;8.30;2.22;;;;;;;4.81;100.00;97029.41;6109585;19;20564;-72
2024/01/05 07:28:49;;;;;;;6.22;2.22;;;;;;;4.78;100.00;97024.66;6110050;19;20010;-72
2024/01/05 07:30:50;;;;;;;7.35;1.83;;;;;;;4.77;100.00;97023.09;6109534;19;20349;-72
2024/01/05 07:32:50;;;;;;;4.10;2.28;;;;;;;4.81;100.00;97021.19;6107647;19;20078;-72
2024/01/05 07:34:51;;;;;;;4.32;2.30;;;;;;;4.72;100.00;97024.22;6109447;19;20499;-72
2024/01/05 07:36:51;;;;;;;6.78;2.63;;;;;;;4.70;100.00;97028.47;6109353;19;20304;-71
2024/01/05 07:38:52;;;;;;;6.20;2.50;;;;;;;4.68;100.00;97020.66;6110327;19;20011;-72
2024/01/05 07:40:52;;;;;;;11.48;3.45;;;;;;;4.64;100.00;97021.78;6109500;19;20471;-72
2024/01/05 07:42:52;;;;;;;9.10;2.67;;;;;;;4.60;100.00;97029.16;6107061;19;20014;-72
2024/01/05 07:44:54;;;;;;;6.35;2.65;;;;;;;4.58;100.00;97028.75;6108789;19;20010;-72
2024/01/05 07:46:54;;;;;;;6.87;2.40;;;;;;;4.53;100.00;97021.63;6108236;19;20003;-72
2024/01/05 07:48:54;;;;;;;5.32;2.33;;;;;;;4.54;100.00;97022.44;6099776;19;20015;-72
2024/01/05 07:50:55;;;;;;;5.97;2.17;;;;;;;4.49;100.00;97020.81;6108942;19;20084;-72
2024/01/05 07:52:55;;;;;;;8.20;2.72;;;;;;;4.49;100.00;97023.56;6107981;19;20494;-71
2024/01/05 07:54:55;;;;;;;6.90;2.13;;;;;;;4.50;100.00;97020.44;6108866;19;20090;-72
2024/01/05 07:56:56;;;;;;;3.65;1.98;;;;;;;4.50;100.00;97025.13;6107800;19;20103;-72
2024/01/05 07:58:56;;;;;;;5.68;2.38;;;;;;;4.49;100.00;97015.34;6108850;19;20514;-72
2024/01/05 08:00:57;;;;;;;8.25;2.22;;;;;;;4.49;100.00;97023.56;6107398;19;20019;-72
2024/01/05 08:02:58;;;;;;;4.22;1.75;;;;;;;4.47;100.00;97025.88;6104559;19;20074;-72
2024/01/05 08:04:58;;;;;;;5.13;1.58;;;;;;;4.49;100.00;97034.50;6109191;19;20009;-72
2024/01/05 08:06:58;;;;;;;3.05;1.83;;;;;;;4.49;100.00;97018.88;6106879;19;20002;-72
2024/01/05 08:08:59;;;;;;;2.10;1.73;;;;;;;4.49;100.00;97015.34;6108332;19;20009;-72
2024/01/05 08:10:59;;;;;;;3.75;1.73;;;;;;;4.53;100.00;97018.91;6109298;19;20042;-72
2024/01/05 08:13:01;;;;;;;3.50;2.17;;;;;;;4.54;100.00;97016.94;6107490;19;20365;-72
2024/01/05 08:15:01;;;;;;;4.97;1.90;;;;;;;4.58;100.00;97013.09;6109256;19;20017;-72
2024/01/05 08:17:02;;;;;;;5.43;1.80;;;;;;;4.62;100.00;97013.91;6107350;19;20550;-72
2024/01/05 08:19:02;;;;;;;5.65;2.05;;;;;;;4.64;100.00;97003.38;6108105;19;20002;-72
2024/01/05 08:21:03;;;;;;;6.57;2.65;;;;;;;4.70;100.00;97003.81;6107925;19;20796;-72
2024/01/05 08:23:03;;;;;;;7.45;1.92;;;;;;;4.74;100.00;97002.72;6107771;19;20009;-72
2024/01/05 08:25:04;;;;;;;3.40;1.73;;;;;;;4.77;100.00;97004.69;6109142;19;20486;-72
2024/01/05 08:27:04;;;;;;;6.00;1.70;;;;;;;4.77;100.00;97006.66;6108185;19;20007;-72
2024/01/05 08:29:05;;;;;;;3.63;1.60;;;;;;;4.77;100.00;97009.38;6107012;19;20440;-72
2024/01/05 08:31:05;;;;;;;6.38;1.67;;;;;;;4.79;100.00;97020.75;6107621;19;20320;-71
2024/01/05 08:33:06;;;;;;;3.83;1.90;;;;;;;4.84;100.00;97033.34;6107455;19;20051;-72
2024/01/05 08:35:06;;;;;;;3.80;1.98;;;;;;;4.85;100.00;97023.94;6108768;19;20015;-72
2024/01/05 08:37:07;;;;;;;5.00;1.65;;;;;;;4.88;100.00;97018.53;6107592;19;20014;-72
2024/01/05 08:39:07;;;;;;;6.93;2.80;;;;;;;4.91;100.00;97020.50;6108447;19;20422;-71
2024/01/05 08:41:08;;;;;;;2.83;1.50;;;;;;;4.92;100.00;97010.31;6107442;19;20088;-72
2024/01/05 08:43:10;;;;;;;6.30;1.52;;;;;;;4.94;100.00;97010.72;6107131;19;20007;-72
2024/01/05 08:45:10;;;;;;;5.88;1.90;;;;;;;5.00;100.00;97020.19;6110904;19;20019;-72
2024/01/05 08:47:11;;;;;;;3.65;1.60;;;;;;;5.01;100.00;97008.06;6113593;19;20010;-72
2024/01/05 08:49:11;;;;;;;4.22;1.88;;;;;;;5.03;100.00;97002.97;6109192;19;20012;-71
2024/01/05 08:51:12;;;;;;;3.03;1.77;;;;;;;5.05;100.00;97011.63;6106365;19;20657;-72
2024/01/05 08:53:12;;;;;;;2.70;1.65;;;;;;;5.06;100.00;97007.72;6105586;19;21451;-71
2024/01/05 08:55:17;;;;;;;6.28;2.10;;;;;;;5.14;100.00;97008.59;6106209;19;20014;-72
2024/01/05 08:57:18;;;;;;;5.07;1.70;;;;;;;5.17;100.00;97018.78;6105592;19;20002;-71
2024/01/05 08:59:18;;;;;;;3.38;1.77;;;;;;;5.19;100.00;96998.03;6103381;19;20102;-71
2024/01/05 09:01:19;;;;;;;5.22;1.77;;;;;;;5.22;100.00;97004.75;6103690;19;20796;-72
2024/01/05 09:03:20;;;;;;;5.05;2.35;;;;;;;5.19;100.00;97003.53;6105028;19;20586;-72
2024/01/05 09:05:20;;;;;;;3.72;1.90;;;;;;;5.23;100.00;97001.63;6050811;19;20066;-71
2024/01/05 09:07:21;;;;;;;3.35;1.63;;;;;;;5.19;100.00;96998.03;6105754;19;20017;-71
2024/01/05 09:09:21;;;;;;;4.40;1.67;;;;;;;5.21;100.00;96997.66;6100916;19;20022;-72
2024/01/05 09:11:21;;;;;;;3.85;1.60;;;;;;;5.23;100.00;96985.16;6105105;19;20223;-72
2024/01/05 09:13:22;;;;;;;4.47;1.70;;;;;;;5.27;100.00;96996.16;6104942;19;20002;-71
2024/01/05 09:15:22;;;;;;;4.07;1.70;;;;;;;5.24;100.00;96989.47;6104471;19;20013;-72
2024/01/05 09:17:23;;;;;;;5.15;1.88;;;;;;;5.24;100.00;96994.97;6104449;19;20017;-72
2024/01/05 09:19:23;;;;;;;5.53;1.70;;;;;;;5.30;100.00;97009.13;6105126;19;20010;-72
2024/01/05 09:21:23;;;;;;;3.78;1.50;;;;;;;5.30;100.00;97007.16;6105901;19;20002;-72
2024/01/05 09:23:23;;;;;;;1.95;1.40;;;;;;;5.40;100.00;97030.38;6103604;19;20510;-71
2024/01/05 09:25:24;;;;;;;7.15;1.90;;;;;;;5.41;100.00;97015.47;6105777;19;20022;-71
2024/01/05 09:27:24;;;;;;;5.75;1.85;;;;;;;5.47;100.00;97026.91;6105371;19;20439;-72